Time;durP1;ratioP1;P1;durP2;ratioP2;P2;SDS_P1;SDS_P2;PMS_P1;PMS_P2;Temp;Humidity;BMP_temperature;BMP_pressure;BME280_temperature;BME280_humidity;BME280_pressure;Samples;Min_cycle;Max_cycle;Signal;HPM_P1;HPM_P2
2022/01/08 00:01:59;;;;;;;0.60;0.60;;;;;;;6.93;32.98;98947.97;5091955;28;20051;-69
2022/01/08 00:04:25;;;;;;;0.50;0.50;;;;;;;7.02;33.21;98946.25;5057974;28;20044;-68
2022/01/08 00:06:51;;;;;;;0.60;0.60;;;;;;;7.11;33.01;98955.03;5058005;28;20075;-69
2022/01/08 00:09:17;;;;;;;0.60;0.60;;;;;;;7.07;32.70;98951.91;5074835;28;20086;-68
2022/01/08 00:11:43;;;;;;;0.60;0.60;;;;;;;7.08;32.85;98952.72;5091351;28;20059;-68
2022/01/08 00:14:10;;;;;;;0.53;0.53;;;;;;;7.36;32.72;98954.25;5074420;28;20097;-68
2022/01/08 00:16:39;;;;;;;0.60;0.60;;;;;;;7.60;32.84;98923.53;5074604;28;20080;-68
2022/01/08 00:19:05;;;;;;;0.53;0.53;;;;;;;7.00;32.83;98956.13;5057706;28;20460;-69
2022/01/08 00:21:31;;;;;;;0.60;0.60;;;;;;;7.11;33.25;98958.53;5041463;28;20073;-70
2022/01/08 00:23:56;;;;;;;0.53;0.53;;;;;;;7.08;33.11;98955.34;5057642;28;20043;-69
2022/01/08 00:26:22;;;;;;;0.60;0.60;;;;;;;7.02;33.28;98929.56;5092276;28;20036;-68
2022/01/08 00:28:48;;;;;;;0.70;0.70;;;;;;;7.24;32.89;98955.50;5057638;28;20048;-69
2022/01/08 00:31:14;;;;;;;0.57;0.57;;;;;;;7.63;33.37;98960.22;5074187;28;20052;-69
2022/01/08 00:33:40;;;;;;;0.60;0.60;;;;;;;7.57;31.65;98963.50;5091059;28;20063;-70
2022/01/08 00:36:06;;;;;;;0.67;0.67;;;;;;;7.72;32.81;98966.41;5057425;28;20048;-70
2022/01/08 00:38:33;;;;;;;0.50;0.50;;;;;;;7.51;32.80;98973.84;5091508;28;20058;-69
2022/01/08 00:40:59;;;;;;;0.60;0.60;;;;;;;7.46;31.91;98984.03;5090863;28;20040;-69
2022/01/08 00:43:25;;;;;;;0.57;0.57;;;;;;;7.33;32.22;98930.78;5056503;28;20049;-70
2022/01/08 00:45:51;;;;;;;0.60;0.60;;;;;;;7.35;31.73;98982.47;5092167;28;20047;-70
2022/01/08 00:48:17;;;;;;;0.60;0.60;;;;;;;7.33;31.40;99008.22;5057087;28;20403;-70
2022/01/08 00:50:42;;;;;;;0.67;0.67;;;;;;;7.27;31.05;99003.56;5091958;28;20052;-70
2022/01/08 00:53:08;;;;;;;0.60;0.60;;;;;;;7.23;32.37;99006.63;5040644;28;20036;-70
2022/01/08 00:55:34;;;;;;;0.60;0.60;;;;;;;7.31;32.64;99001.44;5057777;28;20054;-70
2022/01/08 00:57:59;;;;;;;0.50;0.50;;;;;;;7.16;32.38;99001.16;5040857;28;20040;-70
2022/01/08 01:00:25;;;;;;;0.60;0.60;;;;;;;7.23;32.45;99012.75;5057038;28;20036;-70
2022/01/08 01:02:53;;;;;;;0.60;0.60;;;;;;;7.14;32.26;99024.22;5040523;28;20419;-69
2022/01/08 01:05:20;;;;;;;0.50;0.50;;;;;;;7.42;32.59;99022.31;5090342;28;20044;-69
2022/01/08 01:07:47;;;;;;;0.60;0.60;;;;;;;7.12;32.16;98986.56;5073760;28;20044;-68
2022/01/08 01:10:12;;;;;;;0.60;0.60;;;;;;;7.21;32.22;99032.38;5090461;28;20143;-69
2022/01/08 01:12:39;;;;;;;0.60;0.60;;;;;;;7.39;32.29;99039.31;5073715;28;20457;-70
2022/01/08 01:15:06;;;;;;;0.60;0.60;;;;;;;7.66;32.60;99051.56;5040717;28;20036;-69
2022/01/08 01:17:32;;;;;;;0.60;0.60;;;;;;;7.20;32.65;99036.81;5074032;28;20050;-68
2022/01/08 01:19:57;;;;;;;0.60;0.60;;;;;;;7.30;32.40;99044.69;5056847;28;20044;-69
2022/01/08 01:22:28;;;;;;;0.60;0.60;;;;;;;7.45;31.80;99069.56;5056599;28;20040;-69
2022/01/08 01:25:02;;;;;;;0.70;0.70;;;;;;;7.19;32.34;99026.41;5040678;28;20039;-69
2022/01/08 01:41:14;;;;;;;0.50;0.50;;;;;;;6.67;32.01;99044.69;5089694;28;20044;-69
2022/01/08 01:49:18;;;;;;;0.50;0.50;;;;;;;6.75;32.21;99076.47;5090681;28;20407;-68
2022/01/08 01:52:02;;;;;;;0.60;0.60;;;;;;;7.01;32.17;99094.22;5056052;28;20131;-69
2022/01/08 01:54:29;;;;;;;0.60;0.60;;;;;;;7.45;32.50;99091.53;5089413;28;20079;-68
2022/01/08 01:56:59;;;;;;;0.50;0.50;;;;;;;7.83;32.57;99101.75;5089532;28;20052;-69
2022/01/08 01:59:26;;;;;;;0.60;0.60;;;;;;;6.82;31.65;99011.56;5072475;28;20067;-69
2022/01/08 02:01:52;;;;;;;0.60;0.60;;;;;;;7.26;31.60;99098.78;5072558;28;20040;-69
2022/01/08 02:04:17;;;;;;;0.60;0.60;;;;;;;7.27;32.61;99116.28;5072294;28;20069;-69
2022/01/08 02:06:43;;;;;;;0.50;0.50;;;;;;;7.16;32.75;99098.84;5089280;28;20396;-68
2022/01/08 02:09:09;;;;;;;0.70;0.70;;;;;;;7.17;31.62;99119.00;5072911;28;20400;-73
2022/01/08 02:12:04;;;;;;;0.60;0.60;;;;;;;7.97;31.69;99135.59;5055831;28;20108;-69
2022/01/08 02:14:32;;;;;;;0.60;0.60;;;;;;;7.60;31.93;99139.38;5072411;28;20536;-69
2022/01/08 02:16:57;;;;;;;0.60;0.60;;;;;;;7.21;32.28;99143.31;5090519;28;20040;-69
2022/01/08 02:19:23;;;;;;;0.50;0.50;;;;;;;7.13;32.44;99148.50;5055472;28;20086;-69
2022/01/08 02:22:01;;;;;;;0.50;0.50;;;;;;;7.84;32.27;99123.75;5055757;28;20048;-70
2022/01/08 02:24:27;;;;;;;0.70;0.70;;;;;;;7.17;31.20;99161.25;5072447;28;20491;-69
2022/01/08 02:26:53;;;;;;;0.50;0.50;;;;;;;7.33;32.07;99157.94;5072592;28;20123;-69
2022/01/08 02:29:21;;;;;;;0.50;0.50;;;;;;;7.64;32.41;99164.53;5089084;28;20044;-69
2022/01/08 02:32:03;;;;;;;0.90;0.90;;;;;;;7.77;31.67;99163.19;5088953;28;20048;-70
2022/01/08 02:34:30;;;;;;;0.60;0.60;;;;;;;7.65;32.44;99161.75;5055614;28;20051;-69
2022/01/08 02:36:57;;;;;;;0.70;0.70;;;;;;;7.78;32.29;99162.19;5072100;28;20050;-68
2022/01/08 02:39:24;;;;;;;0.60;0.60;;;;;;;7.65;31.73;99163.56;5088858;28;20047;-68
2022/01/08 02:41:59;;;;;;;0.50;0.50;;;;;;;7.53;31.96;99180.63;5055254;28;20138;-68
2022/01/08 02:44:26;;;;;;;0.60;0.60;;;;;;;7.85;32.27;99178.28;5089025;28;20456;-69
2022/01/08 02:46:51;;;;;;;0.60;0.60;;;;;;;7.30;31.47;99166.16;5071922;28;20047;-70
2022/01/08 02:49:18;;;;;;;0.60;0.60;;;;;;;7.46;31.92;99187.47;5072122;28;20040;-70
2022/01/08 02:51:44;;;;;;;0.60;0.60;;;;;;;7.48;32.46;99196.91;5088913;28;20124;-70
2022/01/08 02:54:11;;;;;;;0.60;0.60;;;;;;;7.72;31.70;99214.84;5089204;28;20395;-69
2022/01/08 02:56:41;;;;;;;0.70;0.70;;;;;;;7.87;32.12;99203.56;5071781;28;20055;-69
2022/01/08 02:59:07;;;;;;;0.60;0.60;;;;;;;7.48;32.44;99211.94;5089111;28;20100;-69
2022/01/08 03:01:34;;;;;;;0.57;0.57;;;;;;;7.50;31.95;99218.75;5071828;28;20044;-69
2022/01/08 03:04:00;;;;;;;0.60;0.60;;;;;;;7.47;32.62;99216.41;5072525;28;20496;-68
2022/01/08 03:06:26;;;;;;;0.57;0.57;;;;;;;7.20;32.55;99232.25;5074222;28;20569;-69
2022/01/08 03:08:51;;;;;;;0.50;0.50;;;;;;;7.28;32.79;99226.22;5075764;28;20051;-69
2022/01/08 03:11:17;;;;;;;0.70;0.70;;;;;;;7.40;32.70;99230.31;5042285;28;20064;-69
2022/01/08 03:13:43;;;;;;;0.60;0.60;;;;;;;7.34;32.64;99223.84;5059146;28;20051;-72
2022/01/08 03:16:09;;;;;;;0.60;0.60;;;;;;;7.16;32.36;99233.53;5074860;28;20503;-70
2022/01/08 03:18:37;;;;;;;0.50;0.50;;;;;;;7.05;32.66;99201.19;5091281;28;20063;-70
2022/01/08 03:21:13;;;;;;;0.50;0.50;;;;;;;7.52;32.29;99255.59;5089997;28;20509;-69
2022/01/08 03:23:47;;;;;;;0.60;0.60;;;;;;;7.45;33.13;99255.34;5073262;28;20056;-70
2022/01/08 03:26:14;;;;;;;0.50;0.50;;;;;;;7.22;32.86;99254.06;5090141;28;20078;-70
2022/01/08 03:28:39;;;;;;;0.60;0.60;;;;;;;7.00;31.32;99254.44;5090658;28;20054;-69
2022/01/08 03:31:05;;;;;;;0.53;0.53;;;;;;;7.29;32.92;99254.31;5091398;28;20052;-68
2022/01/08 03:33:31;;;;;;;0.50;0.50;;;;;;;7.24;33.82;99260.06;5092211;28;20051;-69
2022/01/08 03:35:56;;;;;;;0.60;0.60;;;;;;;7.38;32.83;99262.19;5092112;28;20127;-68
2022/01/08 03:38:23;;;;;;;0.60;0.60;;;;;;;7.38;33.11;99222.56;5091866;28;20036;-69
2022/01/08 03:40:48;;;;;;;0.50;0.50;;;;;;;7.37;31.94;99259.69;5091717;28;20072;-68
2022/01/08 03:43:14;;;;;;;0.60;0.60;;;;;;;7.25;33.28;99266.97;5058868;28;20443;-70
2022/01/08 03:45:40;;;;;;;0.60;0.60;;;;;;;6.88;31.39;99280.19;5075145;28;20046;-69
2022/01/08 03:50:32;;;;;;;0.70;0.70;;;;;;;7.08;33.07;99264.25;5091692;28;20113;-69
2022/01/08 03:52:57;;;;;;;0.60;0.60;;;;;;;6.92;32.70;99267.50;5074969;28;20043;-68
2022/01/08 03:55:23;;;;;;;0.50;0.50;;;;;;;7.00;33.40;99266.78;5074617;28;20048;-69
2022/01/08 03:57:49;;;;;;;0.50;0.50;;;;;;;7.10;32.34;99268.44;5074855;28;20457;-68
2022/01/08 04:00:15;;;;;;;0.60;0.60;;;;;;;6.93;33.38;99256.00;5091861;28;20427;-68
2022/01/08 04:02:41;;;;;;;0.60;0.60;;;;;;;6.89;32.44;99273.94;5041462;28;20040;-69
2022/01/08 04:05:07;;;;;;;0.50;0.50;;;;;;;7.22;33.62;99292.84;5058000;28;20404;-69
2022/01/08 04:07:35;;;;;;;0.60;0.60;;;;;;;6.98;33.61;99287.25;5092493;28;20040;-69
2022/01/08 04:10:01;;;;;;;0.60;0.60;;;;;;;7.08;33.23;99295.94;5092583;28;20504;-69
2022/01/08 04:12:36;;;;;;;0.60;0.60;;;;;;;6.90;33.34;99291.41;5074739;28;20139;-70
2022/01/08 04:15:30;;;;;;;0.50;0.50;;;;;;;7.50;33.29;99291.88;5091324;28;20043;-67
2022/01/08 04:17:55;;;;;;;0.60;0.60;;;;;;;7.32;33.17;99264.59;5073075;28;20063;-69
2022/01/08 04:20:23;;;;;;;0.60;0.60;;;;;;;7.69;33.34;99292.59;5091155;28;20127;-69
2022/01/08 04:22:50;;;;;;;0.57;0.57;;;;;;;7.24;33.75;99294.38;5074353;28;20059;-70
2022/01/08 04:25:17;;;;;;;0.50;0.50;;;;;;;7.49;33.06;99301.63;5091415;28;20048;-71
2022/01/08 04:27:43;;;;;;;0.50;0.50;;;;;;;7.22;32.31;99311.34;5057619;28;20131;-69
2022/01/08 04:30:10;;;;;;;0.53;0.53;;;;;;;7.22;32.90;99312.19;5090945;28;20126;-69
2022/01/08 04:32:39;;;;;;;0.60;0.60;;;;;;;7.39;32.91;99276.22;5074003;28;20055;-70
2022/01/08 04:35:05;;;;;;;0.70;0.70;;;;;;;7.33;32.57;99304.06;5092229;28;20040;-69
2022/01/08 04:37:31;;;;;;;0.60;0.60;;;;;;;7.40;32.77;99325.44;5057202;28;20044;-69
2022/01/08 04:39:57;;;;;;;0.60;0.60;;;;;;;7.31;33.23;99311.31;5073789;28;20050;-69
2022/01/08 04:42:23;;;;;;;0.70;0.70;;;;;;;7.92;33.04;99327.38;5091761;28;20047;-68
2022/01/08 04:44:54;;;;;;;0.60;0.60;;;;;;;7.48;33.25;99329.03;5073496;28;20105;-69
2022/01/08 04:47:20;;;;;;;0.67;0.67;;;;;;;7.54;32.47;99333.72;5073359;28;20050;-69
2022/01/08 04:49:45;;;;;;;0.60;0.60;;;;;;;7.38;32.68;99325.56;5040275;28;20044;-69
2022/01/08 04:52:12;;;;;;;0.60;0.60;;;;;;;7.82;32.67;99338.03;5073542;28;20047;-67
2022/01/08 04:54:37;;;;;;;0.70;0.70;;;;;;;7.58;33.29;99342.19;5039977;28;20036;-67
2022/01/08 04:57:03;;;;;;;0.60;0.60;;;;;;;7.47;32.49;99343.22;5056747;28;20047;-68
2022/01/08 04:59:29;;;;;;;0.70;0.70;;;;;;;7.30;33.93;99338.69;5039963;28;20126;-68
2022/01/08 05:01:55;;;;;;;0.60;0.60;;;;;;;7.30;32.90;99345.78;5056460;28;20044;-68
2022/01/08 05:04:21;;;;;;;0.60;0.60;;;;;;;7.13;32.80;99314.84;5091181;28;20043;-68
2022/01/08 05:06:46;;;;;;;0.60;0.60;;;;;;;7.31;32.78;99350.94;5073283;28;20563;-68
2022/01/08 05:09:12;;;;;;;0.60;0.60;;;;;;;7.43;32.90;99352.41;5039893;28;20048;-69
2022/01/08 05:11:38;;;;;;;0.60;0.60;;;;;;;7.51;32.89;99362.25;5039464;28;20507;-68
2022/01/08 05:14:04;;;;;;;0.70;0.70;;;;;;;7.58;33.13;99373.91;5056415;28;20527;-68
2022/01/08 05:16:30;;;;;;;0.60;0.60;;;;;;;7.65;32.87;99364.41;5039437;28;20047;-70
2022/01/08 05:18:56;;;;;;;0.60;0.60;;;;;;;7.75;32.72;99373.97;5090974;28;20054;-70
2022/01/08 05:21:28;;;;;;;0.70;0.70;;;;;;;7.67;32.88;99381.78;5056180;28;20130;-69
2022/01/08 05:23:54;;;;;;;0.60;0.60;;;;;;;7.71;32.48;99350.59;5057008;28;20046;-69
2022/01/08 05:26:21;;;;;;;0.60;0.60;;;;;;;7.66;33.10;99380.13;5056227;28;20050;-73
2022/01/08 05:28:47;;;;;;;0.70;0.70;;;;;;;7.80;33.00;99397.31;5056144;28;20048;-69
2022/01/08 05:31:15;;;;;;;0.70;0.70;;;;;;;7.93;32.65;99393.34;5056288;28;20043;-69
2022/01/08 05:33:41;;;;;;;0.50;0.50;;;;;;;7.79;31.84;99400.94;5072511;28;20322;-68
2022/01/08 05:36:07;;;;;;;0.60;0.60;;;;;;;7.06;32.42;99419.38;5089564;28;20044;-69
2022/01/08 05:38:33;;;;;;;0.67;0.67;;;;;;;7.16;32.87;99415.75;5056118;28;20525;-69
2022/01/08 05:41:00;;;;;;;0.60;0.60;;;;;;;7.14;32.79;99420.31;5089587;28;20089;-67
2022/01/08 05:43:26;;;;;;;0.60;0.60;;;;;;;7.27;32.68;99386.53;5089392;28;20039;-69
2022/01/08 05:45:52;;;;;;;0.60;0.60;;;;;;;7.47;32.94;99416.38;5089641;28;20523;-75
2022/01/08 05:48:18;;;;;;;0.50;0.50;;;;;;;7.23;32.01;99419.47;5073055;28;20124;-69
2022/01/08 05:50:44;;;;;;;0.60;0.60;;;;;;;7.22;33.23;99419.63;5072737;28;20036;-68
2022/01/08 05:53:09;;;;;;;0.60;0.60;;;;;;;7.06;33.30;99425.47;5055642;28;20419;-69
2022/01/08 05:55:35;;;;;;;0.57;0.57;;;;;;;7.06;33.26;99428.13;5055710;28;20040;-71
2022/01/08 05:58:01;;;;;;;0.60;0.60;;;;;;;6.38;31.92;99415.09;5072970;28;20031;-72
2022/01/08 06:00:27;;;;;;;0.60;0.60;;;;;;;7.15;33.78;99439.66;5072445;28;20050;-73
2022/01/08 06:02:53;;;;;;;0.60;0.60;;;;;;;7.16;33.32;99430.75;5072635;28;20056;-73
2022/01/08 06:05:19;;;;;;;0.70;0.70;;;;;;;7.30;33.46;99440.88;5056315;28;20192;-69
2022/01/08 06:07:45;;;;;;;0.60;0.60;;;;;;;7.36;32.84;99440.31;5055714;28;20527;-70
2022/01/08 06:10:13;;;;;;;0.53;0.53;;;;;;;7.37;33.02;99452.53;5089421;28;20059;-70
2022/01/08 06:12:38;;;;;;;0.60;0.60;;;;;;;7.23;32.60;99452.97;5089162;28;20056;-70
2022/01/08 06:15:05;;;;;;;0.60;0.60;;;;;;;7.02;31.67;99408.25;5039212;28;20148;-71
2022/01/08 06:17:30;;;;;;;0.60;0.60;;;;;;;6.81;32.71;99468.31;5039012;28;20059;-72
2022/01/08 06:19:57;;;;;;;1.07;1.07;;;;;;;6.85;34.28;99478.44;5090562;28;20063;-71
2022/01/08 06:22:23;;;;;;;0.60;0.60;;;;;;;7.04;32.81;99487.34;5072638;28;20035;-75
2022/01/08 06:24:48;;;;;;;0.60;0.60;;;;;;;6.83;33.69;99461.06;5055829;28;20103;-73
2022/01/08 06:27:14;;;;;;;0.50;0.50;;;;;;;6.69;32.52;99449.13;5056411;28;20043;-73
2022/01/08 06:29:40;;;;;;;0.60;0.60;;;;;;;6.94;34.10;99482.03;5072355;28;20075;-73
2022/01/08 06:32:06;;;;;;;0.63;0.63;;;;;;;7.11;33.81;99489.28;5074242;28;20135;-72
2022/01/08 06:34:32;;;;;;;0.60;0.60;;;;;;;7.08;34.08;99496.63;5056092;28;20050;-71
2022/01/08 06:36:58;;;;;;;0.70;0.70;;;;;;;6.89;32.20;99485.09;5055161;28;20044;-75
2022/01/08 06:39:24;;;;;;;0.60;0.60;;;;;;;7.31;33.13;99492.72;5055485;28;20181;-73
2022/01/08 06:41:49;;;;;;;0.60;0.60;;;;;;;7.48;32.55;99513.13;5041751;28;20063;-70
2022/01/08 06:44:15;;;;;;;0.70;0.70;;;;;;;7.46;33.48;99517.72;5088035;28;20422;-77
2022/01/08 06:46:41;;;;;;;0.70;0.70;;;;;;;7.81;33.51;99523.25;5069746;28;20093;-79
2022/01/08 06:49:08;;;;;;;0.60;0.60;;;;;;;7.85;33.55;99516.69;5070615;28;20407;-73
2022/01/08 06:51:34;;;;;;;0.60;0.60;;;;;;;7.80;33.12;99526.84;5070601;28;20068;-72
2022/01/08 06:54:00;;;;;;;0.70;0.70;;;;;;;7.81;32.28;99525.88;5070436;28;20075;-70
2022/01/08 06:56:31;;;;;;;0.60;0.60;;;;;;;8.37;32.39;99527.50;5076172;28;20055;-71
2022/01/08 06:58:57;;;;;;;0.70;0.70;;;;;;;7.68;31.88;99480.41;5068237;28;20464;-74
2022/01/08 07:01:23;;;;;;;0.60;0.60;;;;;;;8.12;32.35;99514.06;5084881;28;20130;-72
2022/01/08 07:03:50;;;;;;;0.70;0.70;;;;;;;8.28;32.15;99517.81;5067497;28;20170;-71
2022/01/08 07:06:18;;;;;;;0.60;0.60;;;;;;;8.12;32.51;99496.41;5068123;28;20097;-73
2022/01/08 07:08:43;;;;;;;0.80;0.80;;;;;;;8.36;31.89;99522.38;5051209;28;20072;-73
2022/01/08 07:11:10;;;;;;;0.63;0.63;;;;;;;8.63;32.06;99532.09;5067228;28;20051;-72
2022/01/08 07:13:37;;;;;;;0.60;0.60;;;;;;;8.42;32.58;99537.66;5066832;28;20040;-72
2022/01/08 07:16:06;;;;;;;0.75;0.75;;;;;;;8.75;32.55;99549.47;5071361;28;20109;-73
2022/01/08 07:18:35;;;;;;;0.60;0.60;;;;;;;8.96;32.16;99540.25;5070476;28;20846;-74
2022/01/08 07:21:01;;;;;;;0.67;0.67;;;;;;;8.55;31.55;99559.31;5052374;28;20044;-75
2022/01/08 07:23:27;;;;;;;0.60;0.60;;;;;;;8.56;32.66;99550.41;5066460;28;20039;-75
2022/01/08 07:25:53;;;;;;;0.70;0.70;;;;;;;8.62;31.28;99546.31;5032262;28;20519;-75
2022/01/08 07:28:18;;;;;;;0.63;0.63;;;;;;;8.45;30.92;99567.31;5050955;28;20056;-76
2022/01/08 07:30:45;;;;;;;0.70;0.70;;;;;;;8.51;31.17;99553.50;5068618;28;20071;-77
2022/01/08 07:33:13;;;;;;;0.70;0.70;;;;;;;8.64;30.80;99547.84;5057019;28;20069;-75
2022/01/08 07:35:40;;;;;;;0.70;0.70;;;;;;;8.67;31.64;99573.19;5063403;28;20061;-77
2022/01/08 07:38:06;;;;;;;0.70;0.70;;;;;;;8.86;30.85;99575.72;5078698;28;20035;-79
2022/01/08 07:40:32;;;;;;;0.60;0.60;;;;;;;8.96;31.34;99569.41;5082465;28;20579;-78
2022/01/08 07:42:58;;;;;;;0.70;0.70;;;;;;;9.01;32.21;99569.75;5069886;28;20067;-77
2022/01/08 07:45:24;;;;;;;0.70;0.70;;;;;;;8.71;30.54;99558.66;5085734;28;20044;-79
2022/01/08 07:47:50;;;;;;;0.70;0.70;;;;;;;8.55;31.99;99533.69;5081432;28;20032;-77
2022/01/08 07:50:17;;;;;;;0.60;0.60;;;;;;;8.78;30.95;99573.81;5055087;28;20601;-74
2022/01/08 07:52:44;;;;;;;0.80;0.80;;;;;;;8.89;30.98;99584.19;5058526;28;20044;-81
2022/01/08 07:55:11;;;;;;;0.67;0.67;;;;;;;8.85;31.02;99572.25;5052861;28;20036;-78
2022/01/08 07:57:37;;;;;;;0.60;0.60;;;;;;;8.92;31.37;99583.09;5098747;28;20063;-83
2022/01/08 08:00:06;;;;;;;1.20;1.20;;;;;;;10.15;31.95;99592.66;5056663;28;20040;-78
2022/01/08 08:02:38;;;;;;;1.50;1.50;;;;;;;12.48;30.45;99566.44;5088792;28;20036;-80
2022/01/08 08:05:04;;;;;;;1.50;1.50;;;;;;;14.69;26.24;99584.78;5054924;28;20109;-79
2022/01/08 08:07:36;;;;;;;1.40;1.40;;;;;;;15.95;27.00;99598.38;5071632;28;20097;-78
2022/01/08 08:10:11;;;;;;;1.20;1.20;;;;;;;17.89;23.19;99613.00;5088290;28;20500;-79
2022/01/08 08:12:38;;;;;;;1.00;1.00;;;;;;;18.13;21.88;99596.25;5071030;28;20048;-77
2022/01/08 08:15:05;;;;;;;1.00;1.00;;;;;;;18.30;21.27;99599.34;5069906;28;20040;-78
2022/01/08 08:17:31;;;;;;;0.90;0.90;;;;;;;19.17;22.05;99606.00;5054443;28;20391;-77
2022/01/08 08:19:57;;;;;;;0.90;0.90;;;;;;;19.45;21.63;99601.09;5070324;28;20047;-76
2022/01/08 08:22:23;;;;;;;1.15;1.08;;;;;;;19.73;18.42;99609.66;5089050;28;20039;-81
2022/01/08 08:24:48;;;;;;;0.90;0.90;;;;;;;20.17;19.12;99613.31;5088587;28;20453;-78
2022/01/08 08:27:14;;;;;;;1.10;1.10;;;;;;;19.44;18.98;99602.16;5070724;28;20048;-81
2022/01/08 08:29:40;;;;;;;9.43;1.20;;;;;;;19.33;19.22;99607.38;5038296;28;20060;-81
2022/01/08 08:32:07;;;;;;;5.43;1.30;;;;;;;20.53;19.82;99603.41;5089222;28;20061;-82
2022/01/08 08:34:32;;;;;;;18.05;1.77;;;;;;;19.74;16.05;99608.59;5071701;28;20442;-82
2022/01/08 08:36:58;;;;;;;6.30;1.60;;;;;;;19.99;19.94;99608.63;5055234;28;20044;-81
2022/01/08 08:39:25;;;;;;;13.48;1.98;;;;;;;20.87;17.03;99593.91;5054311;28;20040;-77
2022/01/08 08:41:51;;;;;;;18.35;2.20;;;;;;;22.06;16.77;99606.47;5069831;28;20404;-77
2022/01/08 08:44:17;;;;;;;9.43;2.50;;;;;;;23.09;16.32;99621.88;5086278;28;20054;-76
2022/01/08 08:46:43;;;;;;;9.40;2.05;;;;;;;23.28;16.16;99618.00;5053324;28;20043;-76
2022/01/08 08:49:08;;;;;;;12.43;2.30;;;;;;;23.88;15.52;99614.81;5053302;28;20040;-74
2022/01/08 08:51:35;;;;;;;7.13;1.95;;;;;;;24.74;15.63;99612.44;5069569;28;20515;-73
2022/01/08 08:54:01;;;;;;;13.43;2.30;;;;;;;24.91;14.75;99623.31;5088236;28;20052;-75
2022/01/08 08:56:29;;;;;;;8.38;1.85;;;;;;;23.31;13.56;99613.16;5067883;28;20043;-74
2022/01/08 08:58:54;;;;;;;3.67;2.00;;;;;;;23.82;14.53;99613.09;5086819;28;20824;-73
2022/01/08 09:01:20;;;;;;;6.30;1.88;;;;;;;24.60;13.94;99630.16;5069426;28;20051;-74
2022/01/08 09:03:48;;;;;;;16.48;2.08;;;;;;;24.88;14.78;99625.44;5035573;28;20047;-72
2022/01/08 09:06:14;;;;;;;3.83;2.00;;;;;;;24.00;13.47;99623.75;5069209;28;20518;-72
2022/01/08 09:08:40;;;;;;;3.33;1.80;;;;;;;24.10;14.30;99610.34;5052690;28;20162;-73
2022/01/08 09:11:06;;;;;;;2.47;1.63;;;;;;;21.52;15.49;99606.63;5052458;28;20519;-73
2022/01/08 09:13:31;;;;;;;2.55;1.48;;;;;;;17.50;18.37;99630.88;5035691;28;20446;-74
2022/01/08 09:15:59;;;;;;;4.38;1.50;;;;;;;15.67;21.06;99637.66;5052439;28;20048;-73
2022/01/08 09:18:27;;;;;;;3.25;1.67;;;;;;;13.99;21.96;99632.41;5069293;28;20052;-73
2022/01/08 09:21:02;;;;;;;5.20;2.00;;;;;;;12.62;24.15;99627.00;5088106;28;20044;-74
2022/01/08 09:23:28;;;;;;;5.85;2.20;;;;;;;12.21;24.68;99625.41;5053023;28;20141;-74
2022/01/08 09:25:55;;;;;;;4.38;1.50;;;;;;;12.69;24.81;99621.81;5075698;28;20586;-70
2022/01/08 09:28:21;;;;;;;2.67;1.55;;;;;;;12.40;24.94;99619.72;5065352;28;20166;-71
2022/01/08 09:30:47;;;;;;;5.70;1.90;;;;;;;12.00;23.29;99638.41;5048850;28;20039;-72
2022/01/08 09:33:14;;;;;;;3.80;1.83;;;;;;;11.42;23.38;99579.97;5079840;28;20560;-71
2022/01/08 09:35:40;;;;;;;7.63;2.10;;;;;;;12.27;23.63;99648.69;5082098;28;20085;-71
2022/01/08 09:38:06;;;;;;;10.40;4.60;;;;;;;12.44;23.62;99636.22;5080822;28;20071;-71
2022/01/08 09:40:32;;;;;;;4.83;3.00;;;;;;;12.27;24.08;99632.72;5080803;28;20398;-71
2022/01/08 09:42:59;;;;;;;7.27;2.40;;;;;;;12.32;24.14;99643.72;5097795;28;20070;-71
2022/01/08 09:45:25;;;;;;;7.17;2.47;;;;;;;11.93;24.67;99643.56;5082319;28;20040;-71
2022/01/08 09:47:52;;;;;;;5.77;2.00;;;;;;;11.83;24.45;99656.22;5064644;28;20039;-73
2022/01/08 09:50:19;;;;;;;3.10;2.03;;;;;;;10.61;25.05;99665.75;5064271;28;20620;-73
2022/01/08 09:52:46;;;;;;;5.77;2.20;;;;;;;10.15;25.70;99644.88;5064960;28;20195;-75
2022/01/08 09:55:12;;;;;;;4.20;2.13;;;;;;;9.96;27.20;99660.97;5064506;28;20179;-75
2022/01/08 09:57:39;;;;;;;4.93;2.37;;;;;;;9.39;27.05;99679.97;5096161;28;20449;-77
2022/01/08 10:00:14;;;;;;;6.80;2.50;;;;;;;9.24;27.65;99671.69;5066355;28;20043;-76
2022/01/08 10:02:40;;;;;;;8.23;3.00;;;;;;;9.02;27.87;99690.66;5097030;28;20032;-76
2022/01/08 10:05:11;;;;;;;6.00;3.13;;;;;;;9.97;27.54;99634.28;5071206;28;20108;-75
2022/01/08 10:07:36;;;;;;;12.48;3.38;;;;;;;9.88;27.09;99677.66;5073462;28;20563;-75
2022/01/08 10:10:13;;;;;;;5.63;2.93;;;;;;;10.07;27.27;99676.69;5071681;28;20097;-77
2022/01/08 10:12:54;;;;;;;5.50;3.20;;;;;;;9.89;27.40;99598.88;5054671;28;20297;-77
2022/01/08 10:18:11;;;;;;;11.98;3.40;;;;;;;10.82;26.10;99687.47;5071111;28;20044;-76
2022/01/08 10:20:40;;;;;;;6.53;3.30;;;;;;;11.67;25.54;99682.78;5055001;28;20067;-77
2022/01/08 10:23:18;;;;;;;7.40;3.37;;;;;;;11.52;25.59;99686.22;5053220;28;20055;-76
2022/01/08 10:26:11;;;;;;;6.17;3.20;;;;;;;12.00;25.63;99681.00;5071668;28;20517;-78
2022/01/08 10:28:51;;;;;;;6.07;3.73;;;;;;;12.21;24.96;99699.97;5057081;28;20044;-77
2022/01/08 10:31:22;;;;;;;9.73;3.50;;;;;;;12.22;24.51;99669.69;5039492;28;20040;-76
2022/01/08 10:34:02;;;;;;;6.37;3.50;;;;;;;12.81;24.35;99701.22;5055653;28;20541;-77
2022/01/08 10:36:42;;;;;;;6.23;2.57;;;;;;;12.72;23.84;99701.41;5071795;28;20051;-75
2022/01/08 10:39:11;;;;;;;7.73;3.40;;;;;;;13.04;23.91;99714.66;5038636;28;20071;-78
2022/01/08 10:41:45;;;;;;;4.87;2.53;;;;;;;11.15;24.75;99702.56;5071927;28;20499;-78
2022/01/08 10:44:20;;;;;;;6.47;2.90;;;;;;;10.40;26.23;99709.59;5056425;28;20064;-79
2022/01/08 10:46:59;;;;;;;8.93;3.90;;;;;;;10.39;27.07;99703.47;5056503;28;20199;-80
2022/01/08 10:49:35;;;;;;;9.03;3.87;;;;;;;9.70;27.33;99570.72;5074640;28;20051;-79
2022/01/08 10:52:06;;;;;;;6.23;3.03;;;;;;;9.96;26.80;99688.31;5039578;28;20638;-78
2022/01/08 10:54:37;;;;;;;8.07;3.30;;;;;;;9.78;26.88;99721.97;5071546;28;20074;-80
2022/01/08 10:57:07;;;;;;;7.78;3.67;;;;;;;9.58;27.29;99693.94;5088890;28;20047;-78
2022/01/08 10:59:34;;;;;;;6.20;3.43;;;;;;;10.19;28.06;99717.91;5073016;28;20087;-80
2022/01/08 11:02:07;;;;;;;5.63;2.97;;;;;;;9.51;26.66;99692.88;5055833;28;20036;-78
2022/01/08 11:04:36;;;;;;;7.87;3.70;;;;;;;10.39;27.00;99715.91;5070719;28;20044;-80
2022/01/08 11:07:03;;;;;;;8.20;3.67;;;;;;;9.86;28.28;99666.34;5090470;28;20483;-79
2022/01/08 11:09:29;;;;;;;6.07;3.50;;;;;;;8.55;26.79;99649.28;5054770;28;20530;-75
2022/01/08 11:12:00;;;;;;;10.90;4.27;;;;;;;10.21;27.60;99721.22;5038922;28;20063;-80
2022/01/08 11:14:48;;;;;;;6.40;3.75;;;;;;;10.23;26.78;99690.06;5056898;28;20501;-79
2022/01/08 11:17:17;;;;;;;9.50;4.30;;;;;;;10.63;27.22;99697.47;5043009;28;20518;-79
2022/01/08 11:19:46;;;;;;;7.97;4.07;;;;;;;10.49;26.33;99669.66;5055302;28;20040;-79
2022/01/08 11:22:17;;;;;;;9.40;4.30;;;;;;;10.52;27.32;99706.53;5071520;28;20105;-79
2022/01/08 11:24:56;;;;;;;9.33;4.67;;;;;;;10.07;27.17;99703.22;5072082;28;20119;-79
2022/01/08 11:27:30;;;;;;;8.97;4.90;;;;;;;10.15;27.01;99693.50;5074200;28;20554;-77
2022/01/08 11:30:03;;;;;;;15.17;5.63;;;;;;;10.36;27.27;99702.94;5057913;28;20048;-78
2022/01/08 11:32:29;;;;;;;9.10;5.20;;;;;;;9.81;26.86;99704.94;5041368;28;20040;-79
2022/01/08 11:34:55;;;;;;;14.53;5.50;;;;;;;9.03;27.05;99713.50;5059011;28;20043;-82
2022/01/08 11:37:25;;;;;;;14.50;6.40;;;;;;;9.40;27.65;99710.78;5058501;28;20454;-78
2022/01/08 11:39:52;;;;;;;12.40;6.83;;;;;;;8.89;27.99;99731.69;5073896;28;20052;-76
2022/01/08 11:42:22;;;;;;;16.20;7.30;;;;;;;9.06;28.28;99747.66;5057540;28;20040;-77
2022/01/08 11:44:50;;;;;;;20.17;7.30;;;;;;;9.23;28.92;99746.88;5075986;28;20058;-76
2022/01/08 11:47:17;;;;;;;12.93;6.33;;;;;;;9.03;28.49;99752.41;5092757;28;20052;-76
2022/01/08 11:49:43;;;;;;;15.97;6.03;;;;;;;8.58;29.45;99757.53;5091358;28;20068;-76
2022/01/08 11:52:15;;;;;;;10.03;5.33;;;;;;;8.15;29.91;99757.13;5090789;28;20040;-80
2022/01/08 11:54:42;;;;;;;14.10;5.60;;;;;;;7.82;30.09;99750.47;5073578;28;20040;-77
2022/01/08 11:57:35;;;;;;;18.77;7.60;;;;;;;8.31;29.49;99766.25;5073405;28;20105;-78
2022/01/08 12:00:02;;;;;;;20.10;8.60;;;;;;;8.05;30.29;99746.59;5070324;28;20520;-75
2022/01/08 12:02:41;;;;;;;18.27;8.43;;;;;;;8.77;29.76;99754.84;5075007;28;20051;-80
2022/01/08 12:05:12;;;;;;;16.67;7.87;;;;;;;8.19;29.86;99742.69;5073864;28;20545;-80
2022/01/08 12:07:42;;;;;;;17.67;8.30;;;;;;;8.33;30.77;99772.19;5057006;28;20050;-81